Bogota, Colombia
Current Conditions -  °F | °C
As of 7:00 PM on Saturday 22 Nov 2014 (Local Time) from SKBO Reporting Station
Rain Showers Rain Showers  
Wind Chill: 54°   Ceiling: 2300
Heat Index: 54°   Visibility: 6mi
Dew Point: 52°   Wind: 2mph
Humidity: 94%   Direction: NA
Pressure: 30.27"   Gusts: NA
Location:  4.63°N, 74.09°W
Report Text: SKBO 230000Z VRB02KT 9999 VCSH FEW010 BKN023 12/11 A3027 RMKVCSH SSE
Loading
Personal Weather Stations






























Interactive Weather Map New forecast layout! Learn more

10-Day Weather Forecast

Advertisements
Track Severe Weather on mobile